sensor_id;sensor_type;location;lat;lon;timestamp;P1;durP1;ratioP1;P2;durP2;ratioP2
13733;SDS011;43298;52.560;13.508;2023-04-25T00:01:31;16.33;;;15.63;;
13733;SDS011;43298;52.560;13.508;2023-04-25T00:04:00;17.33;;;16.60;;
13733;SDS011;43298;52.560;13.508;2023-04-25T00:06:26;15.68;;;14.98;;
13733;SDS011;43298;52.560;13.508;2023-04-25T00:08:52;17.23;;;16.48;;
13733;SDS011;43298;52.560;13.508;2023-04-25T00:11:18;18.30;;;17.52;;
13733;SDS011;43298;52.560;13.508;2023-04-25T00:13:44;14.80;;;14.20;;
13733;SDS011;43298;52.560;13.508;2023-04-25T00:16:11;17.40;;;16.60;;
13733;SDS011;43298;52.560;13.508;2023-04-25T00:18:39;17.23;;;16.52;;
13733;SDS011;43298;52.560;13.508;2023-04-25T00:21:06;17.33;;;16.60;;
13733;SDS011;43298;52.560;13.508;2023-04-25T00:23:32;17.17;;;16.42;;
13733;SDS011;43298;52.560;13.508;2023-04-25T00:26:00;16.52;;;15.82;;
13733;SDS011;43298;52.560;13.508;2023-04-25T00:28:26;17.95;;;17.20;;
13733;SDS011;43298;52.560;13.508;2023-04-25T00:30:52;17.42;;;16.70;;
13733;SDS011;43298;52.560;13.508;2023-04-25T00:33:18;15.90;;;15.20;;
13733;SDS011;43298;52.560;13.508;2023-04-25T00:35:44;16.85;;;16.15;;
13733;SDS011;43298;52.560;13.508;2023-04-25T00:38:10;16.25;;;15.55;;
13733;SDS011;43298;52.560;13.508;2023-04-25T00:40:36;17.48;;;16.45;;
13733;SDS011;43298;52.560;13.508;2023-04-25T00:43:01;16.30;;;15.60;;
13733;SDS011;43298;52.560;13.508;2023-04-25T00:45:28;17.33;;;16.52;;
13733;SDS011;43298;52.560;13.508;2023-04-25T00:47:54;16.73;;;16.02;;
13733;SDS011;43298;52.560;13.508;2023-04-25T00:50:21;17.45;;;16.73;;
13733;SDS011;43298;52.560;13.508;2023-04-25T00:52:48;17.75;;;16.98;;
13733;SDS011;43298;52.560;13.508;2023-04-25T00:55:14;17.40;;;16.60;;
13733;SDS011;43298;52.560;13.508;2023-04-25T00:57:40;16.00;;;15.27;;
13733;SDS011;43298;52.560;13.508;2023-04-25T01:00:08;16.23;;;15.43;;
13733;SDS011;43298;52.560;13.508;2023-04-25T01:02:39;18.30;;;17.13;;
13733;SDS011;43298;52.560;13.508;2023-04-25T01:05:07;17.95;;;16.92;;
13733;SDS011;43298;52.560;13.508;2023-04-25T01:07:33;16.63;;;15.90;;
13733;SDS011;43298;52.560;13.508;2023-04-25T01:10:00;15.88;;;15.13;;
13733;SDS011;43298;52.560;13.508;2023-04-25T01:12:26;17.85;;;17.13;;
13733;SDS011;43298;52.560;13.508;2023-04-25T01:14:52;16.40;;;15.68;;
13733;SDS011;43298;52.560;13.508;2023-04-25T01:17:18;16.38;;;15.68;;
13733;SDS011;43298;52.560;13.508;2023-04-25T01:19:44;17.58;;;16.85;;
13733;SDS011;43298;52.560;13.508;2023-04-25T01:22:14;17.83;;;17.02;;
13733;SDS011;43298;52.560;13.508;2023-04-25T01:24:40;16.90;;;16.20;;
13733;SDS011;43298;52.560;13.508;2023-04-25T01:27:06;16.83;;;16.13;;
13733;SDS011;43298;52.560;13.508;2023-04-25T01:29:33;18.80;;;18.00;;
13733;SDS011;43298;52.560;13.508;2023-04-25T01:32:01;18.10;;;17.33;;
13733;SDS011;43298;52.560;13.508;2023-04-25T01:34:27;16.70;;;16.00;;
13733;SDS011;43298;52.560;13.508;2023-04-25T01:36:53;17.83;;;17.05;;
13733;SDS011;43298;52.560;13.508;2023-04-25T01:39:19;16.63;;;15.90;;
13733;SDS011;43298;52.560;13.508;2023-04-25T01:41:45;16.83;;;16.02;;
13733;SDS011;43298;52.560;13.508;2023-04-25T01:44:12;17.10;;;16.27;;
13733;SDS011;43298;52.560;13.508;2023-04-25T01:46:39;19.15;;;18.13;;
13733;SDS011;43298;52.560;13.508;2023-04-25T01:49:04;17.63;;;16.85;;
13733;SDS011;43298;52.560;13.508;2023-04-25T01:51:31;17.17;;;16.45;;
13733;SDS011;43298;52.560;13.508;2023-04-25T01:53:57;15.95;;;15.25;;
13733;SDS011;43298;52.560;13.508;2023-04-25T01:56:24;17.60;;;16.85;;
13733;SDS011;43298;52.560;13.508;2023-04-25T01:58:50;16.10;;;15.38;;
13733;SDS011;43298;52.560;13.508;2023-04-25T02:01:16;15.68;;;14.98;;
13733;SDS011;43298;52.560;13.508;2023-04-25T02:03:42;16.52;;;15.82;;
13733;SDS011;43298;52.560;13.508;2023-04-25T02:06:08;15.70;;;15.00;;
13733;SDS011;43298;52.560;13.508;2023-04-25T02:08:34;16.45;;;15.52;;
13733;SDS011;43298;52.560;13.508;2023-04-25T02:11:02;16.35;;;15.55;;
13733;SDS011;43298;52.560;13.508;2023-04-25T02:13:28;15.85;;;15.15;;
13733;SDS011;43298;52.560;13.508;2023-04-25T02:15:54;15.55;;;14.90;;
13733;SDS011;43298;52.560;13.508;2023-04-25T02:18:19;16.10;;;15.40;;
13733;SDS011;43298;52.560;13.508;2023-04-25T02:20:46;16.33;;;15.60;;
13733;SDS011;43298;52.560;13.508;2023-04-25T02:23:12;15.50;;;14.77;;
13733;SDS011;43298;52.560;13.508;2023-04-25T02:25:40;16.20;;;15.40;;
13733;SDS011;43298;52.560;13.508;2023-04-25T02:28:06;14.95;;;14.30;;
13733;SDS011;43298;52.560;13.508;2023-04-25T02:30:32;16.77;;;15.88;;
13733;SDS011;43298;52.560;13.508;2023-04-25T02:32:58;15.02;;;14.32;;
13733;SDS011;43298;52.560;13.508;2023-04-25T02:35:24;17.00;;;16.30;;
13733;SDS011;43298;52.560;13.508;2023-04-25T02:37:50;18.20;;;17.27;;
13733;SDS011;43298;52.560;13.508;2023-04-25T02:40:16;16.92;;;16.20;;
13733;SDS011;43298;52.560;13.508;2023-04-25T02:42:41;18.35;;;17.55;;
13733;SDS011;43298;52.560;13.508;2023-04-25T02:45:07;16.10;;;15.38;;
13733;SDS011;43298;52.560;13.508;2023-04-25T02:47:34;17.13;;;16.33;;
13733;SDS011;43298;52.560;13.508;2023-04-25T02:50:00;16.65;;;15.85;;
13733;SDS011;43298;52.560;13.508;2023-04-25T02:52:26;16.40;;;15.68;;
13733;SDS011;43298;52.560;13.508;2023-04-25T02:54:51;16.13;;;15.27;;
13733;SDS011;43298;52.560;13.508;2023-04-25T02:57:17;18.30;;;17.42;;
13733;SDS011;43298;52.560;13.508;2023-04-25T02:59:43;16.33;;;15.57;;
13733;SDS011;43298;52.560;13.508;2023-04-25T03:02:09;22.40;;;21.17;;
13733;SDS011;43298;52.560;13.508;2023-04-25T03:04:35;17.52;;;16.80;;
13733;SDS011;43298;52.560;13.508;2023-04-25T03:07:01;17.92;;;17.13;;
13733;SDS011;43298;52.560;13.508;2023-04-25T03:09:26;16.65;;;15.85;;
13733;SDS011;43298;52.560;13.508;2023-04-25T03:11:52;17.73;;;16.92;;
13733;SDS011;43298;52.560;13.508;2023-04-25T03:14:18;16.77;;;16.05;;
13733;SDS011;43298;52.560;13.508;2023-04-25T03:16:44;17.40;;;16.63;;
13733;SDS011;43298;52.560;13.508;2023-04-25T03:19:10;17.52;;;16.67;;
13733;SDS011;43298;52.560;13.508;2023-04-25T03:21:36;17.50;;;16.77;;
13733;SDS011;43298;52.560;13.508;2023-04-25T03:24:02;17.65;;;16.70;;
13733;SDS011;43298;52.560;13.508;2023-04-25T03:26:31;16.48;;;15.73;;
13733;SDS011;43298;52.560;13.508;2023-04-25T03:28:56;18.23;;;17.48;;
13733;SDS011;43298;52.560;13.508;2023-04-25T03:31:22;18.10;;;17.17;;
13733;SDS011;43298;52.560;13.508;2023-04-25T03:33:48;16.70;;;15.98;;
13733;SDS011;43298;52.560;13.508;2023-04-25T03:36:14;20.23;;;18.73;;
13733;SDS011;43298;52.560;13.508;2023-04-25T03:38:40;17.38;;;16.05;;
13733;SDS011;43298;52.560;13.508;2023-04-25T03:41:08;18.17;;;17.33;;
13733;SDS011;43298;52.560;13.508;2023-04-25T03:43:34;17.17;;;16.38;;
13733;SDS011;43298;52.560;13.508;2023-04-25T03:46:00;16.08;;;15.30;;
13733;SDS011;43298;52.560;13.508;2023-04-25T03:48:26;16.55;;;15.68;;
13733;SDS011;43298;52.560;13.508;2023-04-25T03:50:52;17.88;;;16.98;;
13733;SDS011;43298;52.560;13.508;2023-04-25T03:53:19;17.92;;;17.15;;
13733;SDS011;43298;52.560;13.508;2023-04-25T03:55:45;16.40;;;15.70;;
13733;SDS011;43298;52.560;13.508;2023-04-25T03:58:11;16.77;;;16.08;;
13733;SDS011;43298;52.560;13.508;2023-04-25T04:00:36;15.95;;;15.23;;
13733;SDS011;43298;52.560;13.508;2023-04-25T04:03:02;16.95;;;16.25;;
13733;SDS011;43298;52.560;13.508;2023-04-25T04:05:28;17.33;;;16.52;;
13733;SDS011;43298;52.560;13.508;2023-04-25T04:07:54;18.13;;;17.20;;
13733;SDS011;43298;52.560;13.508;2023-04-25T04:10:20;16.95;;;16.17;;
13733;SDS011;43298;52.560;13.508;2023-04-25T04:12:46;16.30;;;15.50;;
13733;SDS011;43298;52.560;13.508;2023-04-25T04:15:12;14.60;;;14.00;;
13733;SDS011;43298;52.560;13.508;2023-04-25T04:17:38;17.52;;;16.75;;
13733;SDS011;43298;52.560;13.508;2023-04-25T04:20:04;19.70;;;18.55;;
13733;SDS011;43298;52.560;13.508;2023-04-25T04:22:32;17.48;;;16.42;;
13733;SDS011;43298;52.560;13.508;2023-04-25T04:24:57;17.02;;;16.23;;
13733;SDS011;43298;52.560;13.508;2023-04-25T04:27:23;17.98;;;17.20;;
13733;SDS011;43298;52.560;13.508;2023-04-25T04:29:49;18.13;;;17.23;;
13733;SDS011;43298;52.560;13.508;2023-04-25T04:32:17;16.55;;;15.65;;
13733;SDS011;43298;52.560;13.508;2023-04-25T04:34:43;16.65;;;15.93;;
13733;SDS011;43298;52.560;13.508;2023-04-25T04:37:09;19.35;;;18.45;;
13733;SDS011;43298;52.560;13.508;2023-04-25T04:39:37;15.10;;;14.48;;
13733;SDS011;43298;52.560;13.508;2023-04-25T04:42:04;19.88;;;19.00;;
13733;SDS011;43298;52.560;13.508;2023-04-25T04:44:30;17.27;;;16.48;;
13733;SDS011;43298;52.560;13.508;2023-04-25T04:46:59;17.40;;;16.35;;
13733;SDS011;43298;52.560;13.508;2023-04-25T04:49:25;17.75;;;16.92;;
13733;SDS011;43298;52.560;13.508;2023-04-25T04:51:51;18.05;;;16.88;;
13733;SDS011;43298;52.560;13.508;2023-04-25T04:54:17;18.77;;;17.45;;
13733;SDS011;43298;52.560;13.508;2023-04-25T04:56:43;15.30;;;14.60;;
13733;SDS011;43298;52.560;13.508;2023-04-25T04:59:08;15.52;;;14.88;;
13733;SDS011;43298;52.560;13.508;2023-04-25T05:01:36;18.35;;;17.15;;
13733;SDS011;43298;52.560;13.508;2023-04-25T05:04:02;17.67;;;16.65;;
13733;SDS011;43298;52.560;13.508;2023-04-25T05:06:29;15.75;;;15.07;;
13733;SDS011;43298;52.560;13.508;2023-04-25T05:08:56;16.02;;;15.32;;
13733;SDS011;43298;52.560;13.508;2023-04-25T05:11:22;15.35;;;14.68;;
13733;SDS011;43298;52.560;13.508;2023-04-25T05:13:51;15.73;;;15.02;;
13733;SDS011;43298;52.560;13.508;2023-04-25T05:16:17;15.52;;;14.82;;
13733;SDS011;43298;52.560;13.508;2023-04-25T05:18:43;16.77;;;15.50;;
13733;SDS011;43298;52.560;13.508;2023-04-25T05:21:09;15.88;;;15.18;;
13733;SDS011;43298;52.560;13.508;2023-04-25T05:23:35;15.32;;;14.68;;
13733;SDS011;43298;52.560;13.508;2023-04-25T05:26:01;14.90;;;14.20;;
13733;SDS011;43298;52.560;13.508;2023-04-25T05:28:27;16.60;;;15.82;;
13733;SDS011;43298;52.560;13.508;2023-04-25T05:30:52;14.82;;;14.13;;
13733;SDS011;43298;52.560;13.508;2023-04-25T05:33:18;15.32;;;14.55;;
13733;SDS011;43298;52.560;13.508;2023-04-25T05:35:44;15.25;;;14.55;;
13733;SDS011;43298;52.560;13.508;2023-04-25T05:38:11;14.55;;;13.82;;
13733;SDS011;43298;52.560;13.508;2023-04-25T05:40:37;13.55;;;12.95;;
13733;SDS011;43298;52.560;13.508;2023-04-25T05:43:03;14.32;;;13.50;;
13733;SDS011;43298;52.560;13.508;2023-04-25T05:45:28;14.50;;;13.88;;
13733;SDS011;43298;52.560;13.508;2023-04-25T05:47:54;13.55;;;12.95;;
13733;SDS011;43298;52.560;13.508;2023-04-25T05:50:20;13.38;;;12.77;;
13733;SDS011;43298;52.560;13.508;2023-04-25T05:52:46;15.52;;;14.82;;
13733;SDS011;43298;52.560;13.508;2023-04-25T05:55:12;14.38;;;13.68;;
13733;SDS011;43298;52.560;13.508;2023-04-25T05:57:38;13.98;;;13.38;;
13733;SDS011;43298;52.560;13.508;2023-04-25T06:00:06;13.07;;;12.38;;
13733;SDS011;43298;52.560;13.508;2023-04-25T06:02:34;13.55;;;12.95;;
13733;SDS011;43298;52.560;13.508;2023-04-25T06:05:00;12.32;;;11.82;;
13733;SDS011;43298;52.560;13.508;2023-04-25T06:07:28;13.05;;;12.45;;
13733;SDS011;43298;52.560;13.508;2023-04-25T06:09:57;13.02;;;12.48;;
13733;SDS011;43298;52.560;13.508;2023-04-25T06:12:25;12.57;;;12.05;;
13733;SDS011;43298;52.560;13.508;2023-04-25T06:14:50;14.57;;;13.88;;
13733;SDS011;43298;52.560;13.508;2023-04-25T06:17:16;13.70;;;13.00;;
13733;SDS011;43298;52.560;13.508;2023-04-25T06:19:42;13.43;;;12.73;;
13733;SDS011;43298;52.560;13.508;2023-04-25T06:22:08;13.65;;;12.98;;
13733;SDS011;43298;52.560;13.508;2023-04-25T06:24:34;13.50;;;12.90;;
13733;SDS011;43298;52.560;13.508;2023-04-25T06:27:00;11.95;;;11.45;;
13733;SDS011;43298;52.560;13.508;2023-04-25T06:29:26;13.98;;;13.38;;
13733;SDS011;43298;52.560;13.508;2023-04-25T06:31:51;13.20;;;12.50;;
13733;SDS011;43298;52.560;13.508;2023-04-25T06:34:17;11.82;;;11.30;;
13733;SDS011;43298;52.560;13.508;2023-04-25T06:36:43;12.25;;;11.68;;
13733;SDS011;43298;52.560;13.508;2023-04-25T06:39:09;12.70;;;11.85;;
13733;SDS011;43298;52.560;13.508;2023-04-25T06:41:35;10.98;;;10.48;;
13733;SDS011;43298;52.560;13.508;2023-04-25T06:44:02;16.75;;;15.98;;
13733;SDS011;43298;52.560;13.508;2023-04-25T06:46:27;12.75;;;12.15;;
13733;SDS011;43298;52.560;13.508;2023-04-25T06:48:53;12.75;;;12.15;;
13733;SDS011;43298;52.560;13.508;2023-04-25T06:51:19;13.30;;;12.07;;
13733;SDS011;43298;52.560;13.508;2023-04-25T06:53:45;13.50;;;12.60;;
13733;SDS011;43298;52.560;13.508;2023-04-25T06:56:11;11.70;;;11.20;;
13733;SDS011;43298;52.560;13.508;2023-04-25T06:58:36;13.43;;;12.73;;
13733;SDS011;43298;52.560;13.508;2023-04-25T07:01:02;12.25;;;11.75;;
13733;SDS011;43298;52.560;13.508;2023-04-25T07:03:28;13.30;;;12.70;;
13733;SDS011;43298;52.560;13.508;2023-04-25T07:05:54;12.32;;;11.60;;
13733;SDS011;43298;52.560;13.508;2023-04-25T07:08:20;15.25;;;13.88;;
13733;SDS011;43298;52.560;13.508;2023-04-25T07:10:46;12.48;;;11.88;;
13733;SDS011;43298;52.560;13.508;2023-04-25T07:13:12;12.55;;;11.98;;
13733;SDS011;43298;52.560;13.508;2023-04-25T07:15:37;13.07;;;12.38;;
13733;SDS011;43298;52.560;13.508;2023-04-25T07:18:03;11.68;;;11.13;;
13733;SDS011;43298;52.560;13.508;2023-04-25T07:20:29;12.15;;;11.45;;
13733;SDS011;43298;52.560;13.508;2023-04-25T07:22:56;12.00;;;11.40;;
13733;SDS011;43298;52.560;13.508;2023-04-25T07:25:22;16.55;;;15.65;;
13733;SDS011;43298;52.560;13.508;2023-04-25T07:27:48;12.85;;;11.98;;
13733;SDS011;43298;52.560;13.508;2023-04-25T07:30:14;15.77;;;12.68;;
13733;SDS011;43298;52.560;13.508;2023-04-25T07:32:39;12.88;;;12.30;;
13733;SDS011;43298;52.560;13.508;2023-04-25T07:35:06;13.35;;;12.57;;
13733;SDS011;43298;52.560;13.508;2023-04-25T07:37:33;12.95;;;12.30;;
13733;SDS011;43298;52.560;13.508;2023-04-25T07:40:01;12.52;;;12.00;;
13733;SDS011;43298;52.560;13.508;2023-04-25T07:42:31;13.32;;;12.73;;
13733;SDS011;43298;52.560;13.508;2023-04-25T07:44:57;11.50;;;11.00;;
13733;SDS011;43298;52.560;13.508;2023-04-25T07:47:23;13.30;;;11.70;;
13733;SDS011;43298;52.560;13.508;2023-04-25T07:49:49;10.88;;;10.23;;
13733;SDS011;43298;52.560;13.508;2023-04-25T07:52:14;11.30;;;10.75;;
13733;SDS011;43298;52.560;13.508;2023-04-25T07:54:40;13.10;;;12.50;;
13733;SDS011;43298;52.560;13.508;2023-04-25T07:57:06;12.88;;;12.27;;
13733;SDS011;43298;52.560;13.508;2023-04-25T07:59:32;11.98;;;11.35;;
13733;SDS011;43298;52.560;13.508;2023-04-25T08:01:58;13.23;;;12.43;;
13733;SDS011;43298;52.560;13.508;2023-04-25T08:04:24;11.93;;;11.32;;
13733;SDS011;43298;52.560;13.508;2023-04-25T08:06:50;11.35;;;10.85;;
13733;SDS011;43298;52.560;13.508;2023-04-25T08:09:18;12.93;;;11.50;;
13733;SDS011;43298;52.560;13.508;2023-04-25T08:11:45;13.95;;;13.32;;
13733;SDS011;43298;52.560;13.508;2023-04-25T08:14:11;16.90;;;16.00;;
13733;SDS011;43298;52.560;13.508;2023-04-25T08:16:37;12.23;;;11.52;;
13733;SDS011;43298;52.560;13.508;2023-04-25T08:19:03;13.25;;;12.43;;
13733;SDS011;43298;52.560;13.508;2023-04-25T08:21:30;17.80;;;16.88;;
13733;SDS011;43298;52.560;13.508;2023-04-25T08:23:56;12.60;;;12.05;;
13733;SDS011;43298;52.560;13.508;2023-04-25T08:26:23;18.73;;;17.08;;
13733;SDS011;43298;52.560;13.508;2023-04-25T08:28:50;18.98;;;17.38;;
13733;SDS011;43298;52.560;13.508;2023-04-25T08:31:16;19.17;;;18.23;;
13733;SDS011;43298;52.560;13.508;2023-04-25T08:33:42;18.55;;;17.75;;
13733;SDS011;43298;52.560;13.508;2023-04-25T08:36:09;15.95;;;15.23;;
13733;SDS011;43298;52.560;13.508;2023-04-25T08:38:35;14.70;;;13.98;;
13733;SDS011;43298;52.560;13.508;2023-04-25T08:41:01;16.92;;;16.23;;
13733;SDS011;43298;52.560;13.508;2023-04-25T08:43:28;13.85;;;13.18;;
13733;SDS011;43298;52.560;13.508;2023-04-25T08:45:58;16.33;;;15.55;;
13733;SDS011;43298;52.560;13.508;2023-04-25T08:48:26;15.77;;;15.07;;
13733;SDS011;43298;52.560;13.508;2023-04-25T08:50:55;14.80;;;14.20;;
13733;SDS011;43298;52.560;13.508;2023-04-25T08:53:27;15.70;;;14.60;;
13733;SDS011;43298;52.560;13.508;2023-04-25T08:55:55;13.55;;;12.98;;
13733;SDS011;43298;52.560;13.508;2023-04-25T08:58:25;16.85;;;15.52;;
13733;SDS011;43298;52.560;13.508;2023-04-25T09:00:53;17.73;;;16.83;;
13733;SDS011;43298;52.560;13.508;2023-04-25T09:03:19;19.23;;;17.30;;
13733;SDS011;43298;52.560;13.508;2023-04-25T09:05:45;17.42;;;16.63;;
13733;SDS011;43298;52.560;13.508;2023-04-25T09:08:11;15.20;;;14.40;;
13733;SDS011;43298;52.560;13.508;2023-04-25T09:10:37;16.30;;;12.18;;
13733;SDS011;43298;52.560;13.508;2023-04-25T09:15:49;13.07;;;12.48;;
13733;SDS011;43298;52.560;13.508;2023-04-25T09:20:43;12.63;;;12.13;;
13733;SDS011;43298;52.560;13.508;2023-04-25T09:23:09;14.45;;;13.75;;
13733;SDS011;43298;52.560;13.508;2023-04-25T09:25:36;10.93;;;10.43;;
13733;SDS011;43298;52.560;13.508;2023-04-25T09:28:05;12.07;;;11.38;;
13733;SDS011;43298;52.560;13.508;2023-04-25T09:30:35;10.63;;;10.13;;
13733;SDS011;43298;52.560;13.508;2023-04-25T09:33:05;11.52;;;11.02;;
13733;SDS011;43298;52.560;13.508;2023-04-25T09:35:43;12.27;;;11.68;;
13733;SDS011;43298;52.560;13.508;2023-04-25T09:38:13;12.45;;;11.20;;
13733;SDS011;43298;52.560;13.508;2023-04-25T09:40:44;13.10;;;12.02;;
13733;SDS011;43298;52.560;13.508;2023-04-25T09:43:20;13.18;;;12.50;;
13733;SDS011;43298;52.560;13.508;2023-04-25T09:45:53;13.05;;;11.82;;
13733;SDS011;43298;52.560;13.508;2023-04-25T09:48:22;12.15;;;11.05;;
13733;SDS011;43298;52.560;13.508;2023-04-25T09:51:09;9.68;;;9.27;;
13733;SDS011;43298;52.560;13.508;2023-04-25T09:53:39;11.18;;;10.68;;
13733;SDS011;43298;52.560;13.508;2023-04-25T09:56:09;12.80;;;11.98;;
13733;SDS011;43298;52.560;13.508;2023-04-25T09:58:38;11.27;;;10.77;;
13733;SDS011;43298;52.560;13.508;2023-04-25T10:01:09;12.07;;;11.43;;
13733;SDS011;43298;52.560;13.508;2023-04-25T10:03:36;11.63;;;11.13;;
13733;SDS011;43298;52.560;13.508;2023-04-25T10:06:07;12.45;;;11.40;;
13733;SDS011;43298;52.560;13.508;2023-04-25T10:08:37;17.88;;;17.05;;
13733;SDS011;43298;52.560;13.508;2023-04-25T10:11:06;12.13;;;11.43;;
13733;SDS011;43298;52.560;13.508;2023-04-25T10:13:33;14.00;;;13.35;;
13733;SDS011;43298;52.560;13.508;2023-04-25T10:16:04;12.95;;;12.15;;
13733;SDS011;43298;52.560;13.508;2023-04-25T10:18:30;12.18;;;11.68;;
13733;SDS011;43298;52.560;13.508;2023-04-25T10:20:59;12.27;;;11.77;;
13733;SDS011;43298;52.560;13.508;2023-04-25T10:23:28;13.23;;;12.32;;
13733;SDS011;43298;52.560;13.508;2023-04-25T10:25:56;13.52;;;12.93;;
13733;SDS011;43298;52.560;13.508;2023-04-25T10:28:23;13.38;;;12.43;;
13733;SDS011;43298;52.560;13.508;2023-04-25T10:31:00;13.02;;;12.18;;
13733;SDS011;43298;52.560;13.508;2023-04-25T10:33:33;12.98;;;12.48;;
13733;SDS011;43298;52.560;13.508;2023-04-25T10:36:13;15.13;;;14.07;;
13733;SDS011;43298;52.560;13.508;2023-04-25T10:38:44;12.98;;;12.27;;
13733;SDS011;43298;52.560;13.508;2023-04-25T10:41:11;13.35;;;12.75;;
13733;SDS011;43298;52.560;13.508;2023-04-25T10:43:39;13.90;;;13.20;;
13733;SDS011;43298;52.560;13.508;2023-04-25T10:46:27;19.67;;;18.63;;
13733;SDS011;43298;52.560;13.508;2023-04-25T10:48:59;13.95;;;13.35;;
13733;SDS011;43298;52.560;13.508;2023-04-25T10:51:27;14.95;;;14.27;;
13733;SDS011;43298;52.560;13.508;2023-04-25T10:53:59;22.65;;;21.00;;
13733;SDS011;43298;52.560;13.508;2023-04-25T10:56:26;16.23;;;15.52;;
13733;SDS011;43298;52.560;13.508;2023-04-25T10:58:52;14.23;;;13.57;;
13733;SDS011;43298;52.560;13.508;2023-04-25T11:01:43;14.13;;;13.35;;
13733;SDS011;43298;52.560;13.508;2023-04-25T11:09:38;14.57;;;13.88;;
13733;SDS011;43298;52.560;13.508;2023-04-25T11:12:07;14.82;;;14.18;;
13733;SDS011;43298;52.560;13.508;2023-04-25T11:14:34;16.58;;;15.88;;
13733;SDS011;43298;52.560;13.508;2023-04-25T11:17:01;14.70;;;14.10;;
13733;SDS011;43298;52.560;13.508;2023-04-25T11:19:30;14.70;;;14.07;;
13733;SDS011;43298;52.560;13.508;2023-04-25T11:21:56;17.25;;;16.38;;
13733;SDS011;43298;52.560;13.508;2023-04-25T11:24:31;14.93;;;14.32;;
13733;SDS011;43298;52.560;13.508;2023-04-25T11:26:59;11.20;;;10.70;;
13733;SDS011;43298;52.560;13.508;2023-04-25T11:29:29;13.05;;;12.45;;
13733;SDS011;43298;52.560;13.508;2023-04-25T11:31:56;14.32;;;13.57;;
13733;SDS011;43298;52.560;13.508;2023-04-25T11:34:23;12.27;;;11.77;;
13733;SDS011;43298;52.560;13.508;2023-04-25T11:36:50;12.02;;;11.52;;
13733;SDS011;43298;52.560;13.508;2023-04-25T11:39:18;11.80;;;11.20;;
13733;SDS011;43298;52.560;13.508;2023-04-25T11:41:45;14.77;;;11.25;;
13733;SDS011;43298;52.560;13.508;2023-04-25T11:44:12;11.52;;;11.02;;
13733;SDS011;43298;52.560;13.508;2023-04-25T11:46:41;12.05;;;11.52;;
13733;SDS011;43298;52.560;13.508;2023-04-25T11:49:08;15.68;;;14.88;;
13733;SDS011;43298;52.560;13.508;2023-04-25T11:51:40;13.05;;;12.43;;
13733;SDS011;43298;52.560;13.508;2023-04-25T11:54:08;11.63;;;11.13;;
13733;SDS011;43298;52.560;13.508;2023-04-25T11:56:34;12.27;;;11.77;;
13733;SDS011;43298;52.560;13.508;2023-04-25T11:59:01;14.43;;;13.82;;
13733;SDS011;43298;52.560;13.508;2023-04-25T12:01:33;15.45;;;14.75;;
13733;SDS011;43298;52.560;13.508;2023-04-25T12:04:16;20.13;;;19.23;;
13733;SDS011;43298;52.560;13.508;2023-04-25T12:06:51;15.48;;;14.77;;
13733;SDS011;43298;52.560;13.508;2023-04-25T12:09:20;15.27;;;14.65;;
13733;SDS011;43298;52.560;13.508;2023-04-25T12:11:54;15.73;;;14.35;;
13733;SDS011;43298;52.560;13.508;2023-04-25T12:14:22;13.95;;;13.35;;
13733;SDS011;43298;52.560;13.508;2023-04-25T12:16:52;15.35;;;14.70;;
13733;SDS011;43298;52.560;13.508;2023-04-25T12:19:21;14.10;;;13.50;;
13733;SDS011;43298;52.560;13.508;2023-04-25T12:21:47;15.82;;;15.13;;
13733;SDS011;43298;52.560;13.508;2023-04-25T12:24:15;16.20;;;15.38;;
13733;SDS011;43298;52.560;13.508;2023-04-25T12:27:01;14.18;;;13.57;;
13733;SDS011;43298;52.560;13.508;2023-04-25T12:29:30;13.95;;;13.25;;
13733;SDS011;43298;52.560;13.508;2023-04-25T12:31:58;12.98;;;12.38;;
13733;SDS011;43298;52.560;13.508;2023-04-25T12:34:25;13.27;;;12.68;;
13733;SDS011;43298;52.560;13.508;2023-04-25T12:36:51;12.98;;;12.20;;
13733;SDS011;43298;52.560;13.508;2023-04-25T12:39:23;12.77;;;12.18;;
13733;SDS011;43298;52.560;13.508;2023-04-25T12:41:51;13.05;;;12.18;;
13733;SDS011;43298;52.560;13.508;2023-04-25T12:44:20;12.65;;;12.05;;
13733;SDS011;43298;52.560;13.508;2023-04-25T12:46:46;13.30;;;11.35;;
13733;SDS011;43298;52.560;13.508;2023-04-25T12:49:13;12.85;;;12.23;;
13733;SDS011;43298;52.560;13.508;2023-04-25T12:51:39;11.90;;;11.40;;
13733;SDS011;43298;52.560;13.508;2023-04-25T12:54:06;12.65;;;12.05;;
13733;SDS011;43298;52.560;13.508;2023-04-25T12:56:33;13.07;;;12.48;;
13733;SDS011;43298;52.560;13.508;2023-04-25T12:59:00;12.48;;;11.90;;
13733;SDS011;43298;52.560;13.508;2023-04-25T13:01:27;12.32;;;11.70;;
13733;SDS011;43298;52.560;13.508;2023-04-25T13:03:54;12.20;;;11.50;;
13733;SDS011;43298;52.560;13.508;2023-04-25T13:06:20;14.32;;;13.65;;
13733;SDS011;43298;52.560;13.508;2023-04-25T13:08:47;19.85;;;14.75;;
13733;SDS011;43298;52.560;13.508;2023-04-25T13:11:16;14.90;;;14.30;;
13733;SDS011;43298;52.560;13.508;2023-04-25T13:13:42;14.88;;;14.23;;
13733;SDS011;43298;52.560;13.508;2023-04-25T13:16:08;15.98;;;15.10;;
13733;SDS011;43298;52.560;13.508;2023-04-25T13:18:35;15.27;;;14.48;;
13733;SDS011;43298;52.560;13.508;2023-04-25T13:21:01;13.98;;;13.30;;
13733;SDS011;43298;52.560;13.508;2023-04-25T13:23:27;11.85;;;11.20;;
13733;SDS011;43298;52.560;13.508;2023-04-25T13:25:54;12.35;;;11.82;;
13733;SDS011;43298;52.560;13.508;2023-04-25T13:28:22;10.15;;;9.68;;
13733;SDS011;43298;52.560;13.508;2023-04-25T13:30:49;11.55;;;10.95;;
13733;SDS011;43298;52.560;13.508;2023-04-25T13:33:16;11.45;;;10.95;;
13733;SDS011;43298;52.560;13.508;2023-04-25T13:35:42;14.00;;;13.30;;
13733;SDS011;43298;52.560;13.508;2023-04-25T13:38:11;14.43;;;13.77;;
13733;SDS011;43298;52.560;13.508;2023-04-25T13:40:38;11.90;;;11.40;;
13733;SDS011;43298;52.560;13.508;2023-04-25T13:43:04;11.25;;;10.75;;
13733;SDS011;43298;52.560;13.508;2023-04-25T13:45:31;12.63;;;12.02;;
13733;SDS011;43298;52.560;13.508;2023-04-25T13:47:57;13.77;;;13.18;;
13733;SDS011;43298;52.560;13.508;2023-04-25T13:50:23;14.05;;;13.45;;
13733;SDS011;43298;52.560;13.508;2023-04-25T13:52:49;11.27;;;10.77;;
13733;SDS011;43298;52.560;13.508;2023-04-25T13:55:15;14.52;;;13.93;;
13733;SDS011;43298;52.560;13.508;2023-04-25T13:57:41;10.57;;;9.88;;
13733;SDS011;43298;52.560;13.508;2023-04-25T14:00:07;10.98;;;10.45;;
13733;SDS011;43298;52.560;13.508;2023-04-25T14:02:34;10.40;;;9.90;;
13733;SDS011;43298;52.560;13.508;2023-04-25T14:05:01;10.55;;;10.15;;
13733;SDS011;43298;52.560;13.508;2023-04-25T14:07:29;10.48;;;10.02;;
13733;SDS011;43298;52.560;13.508;2023-04-25T14:09:55;10.93;;;10.45;;
13733;SDS011;43298;52.560;13.508;2023-04-25T14:12:24;13.93;;;13.27;;
13733;SDS011;43298;52.560;13.508;2023-04-25T14:14:51;12.75;;;12.05;;
13733;SDS011;43298;52.560;13.508;2023-04-25T14:17:18;12.60;;;12.00;;
13733;SDS011;43298;52.560;13.508;2023-04-25T14:19:44;12.27;;;11.68;;